Pond Cove, Maine
Current Conditions -  °F | °C
As of 6:51 PM on Friday 31 Oct 2014 (Local Time) from KPWM Reporting Station
Scattered Clouds Scattered Clouds  
Wind Chill: 47°   Ceiling: Unl
Heat Index: 47°   Visibility: 10mi
Dew Point: 34°   Wind: 0mph
Humidity: 61%   Direction: NA
Pressure: 30.04"   Gusts: NA
Location:  43.5903°N, 70.2379°W
Report Text: KPWM 312251Z 00000KT 10SM FEW055 SCT200 08/01 A3004 RMK AO2 SLP174 T00830011
Loading
Personal Weather Stations






























Interactive Weather Map
Tropical Storm Tracking
New forecast layout! Learn more

10-Day Weather Forecast

Advertisements
Track Severe Weather on mobile